createdAt,value
2022-07-25T00:01:49.998Z,21.80
2022-07-25T00:04:18.253Z,21.70
2022-07-25T00:06:46.077Z,21.70
2022-07-25T00:09:13.808Z,21.60
2022-07-25T00:11:40.847Z,21.60
2022-07-25T00:14:08.315Z,21.50
2022-07-25T00:16:35.600Z,21.40
2022-07-25T00:19:03.319Z,21.40
2022-07-25T00:21:30.181Z,21.40
2022-07-25T00:23:57.088Z,21.40
2022-07-25T00:26:23.973Z,21.30
2022-07-25T00:28:50.904Z,21.20
2022-07-25T00:31:17.834Z,21.10
2022-07-25T00:33:44.725Z,21.10
2022-07-25T00:36:11.628Z,21.10
2022-07-25T00:38:38.458Z,21.00
2022-07-25T00:41:05.713Z,21.00
2022-07-25T00:43:32.653Z,20.90
2022-07-25T00:46:00.494Z,20.80
2022-07-25T00:48:28.879Z,20.90
2022-07-25T00:50:56.853Z,20.80
2022-07-25T00:53:25.317Z,20.80
2022-07-25T00:55:52.685Z,20.70
2022-07-25T00:58:19.781Z,20.70
2022-07-25T01:00:47.969Z,20.70
2022-07-25T01:03:15.883Z,20.70
2022-07-25T01:05:43.143Z,20.70
2022-07-25T01:08:10.222Z,20.60
2022-07-25T01:10:38.359Z,20.60
2022-07-25T01:13:05.440Z,20.60
2022-07-25T01:15:32.638Z,20.60
2022-07-25T01:17:59.703Z,20.50
2022-07-25T01:20:29.212Z,20.50
2022-07-25T01:22:56.885Z,20.40
2022-07-25T01:25:24.558Z,20.40
2022-07-25T01:27:55.694Z,20.30
2022-07-25T01:30:24.830Z,20.30
2022-07-25T01:32:52.227Z,20.30
2022-07-25T01:35:19.611Z,20.20
2022-07-25T01:37:46.489Z,20.20
2022-07-25T01:40:14.404Z,20.20
2022-07-25T01:42:42.211Z,20.20
2022-07-25T01:45:09.885Z,20.10
2022-07-25T01:47:36.741Z,20.10
2022-07-25T01:50:04.804Z,20.10
2022-07-25T01:52:31.882Z,20.10
2022-07-25T01:54:59.048Z,20.10
2022-07-25T01:57:29.297Z,20.10
2022-07-25T01:59:58.444Z,20.10
2022-07-25T02:02:25.647Z,20.10
2022-07-25T02:04:52.770Z,20.10
2022-07-25T02:07:19.849Z,20.20
2022-07-25T02:09:46.716Z,20.10
2022-07-25T02:12:13.660Z,20.10
2022-07-25T02:14:40.941Z,20.20
2022-07-25T02:17:08.193Z,20.10
2022-07-25T02:19:36.413Z,20.10
2022-07-25T02:22:03.694Z,20.00
2022-07-25T02:24:31.094Z,19.90
2022-07-25T02:26:58.217Z,19.90
2022-07-25T02:29:25.700Z,19.80
2022-07-25T02:31:56.014Z,19.80
2022-07-25T02:34:22.957Z,19.70
2022-07-25T02:36:50.487Z,19.70
2022-07-25T02:39:17.406Z,19.70
2022-07-25T02:41:44.460Z,19.60
2022-07-25T02:44:11.388Z,19.60
2022-07-25T02:46:38.399Z,19.50
2022-07-25T02:49:05.477Z,19.50
2022-07-25T02:51:32.443Z,19.50
2022-07-25T02:53:59.394Z,19.40
2022-07-25T02:56:29.804Z,19.30
2022-07-25T02:58:57.699Z,19.30
2022-07-25T03:01:25.113Z,19.30
2022-07-25T03:03:52.791Z,19.30
2022-07-25T03:06:19.912Z,19.30
2022-07-25T03:08:47.144Z,19.30
2022-07-25T03:11:14.294Z,19.20
2022-07-25T03:13:41.328Z,19.20
2022-07-25T03:16:09.813Z,19.20
2022-07-25T03:18:36.795Z,19.20
2022-07-25T03:21:03.882Z,19.20
2022-07-25T03:23:31.077Z,19.10
2022-07-25T03:25:58.210Z,19.10
2022-07-25T03:28:25.394Z,19.00
2022-07-25T03:30:53.031Z,18.90
2022-07-25T03:33:20.161Z,18.90
2022-07-25T03:35:47.206Z,18.90
2022-07-25T03:38:14.272Z,18.80
2022-07-25T03:40:41.252Z,18.80
2022-07-25T03:43:08.629Z,18.80
2022-07-25T03:45:35.607Z,18.80
2022-07-25T03:48:02.870Z,18.70
2022-07-25T03:50:29.920Z,18.70
2022-07-25T03:52:57.018Z,18.70
2022-07-25T03:55:24.107Z,18.70
2022-07-25T03:57:51.192Z,18.70
2022-07-25T04:00:18.459Z,18.70
2022-07-25T04:02:46.079Z,18.70
2022-07-25T04:05:12.982Z,18.70
2022-07-25T04:07:39.927Z,18.70
2022-07-25T04:10:07.932Z,18.60
2022-07-25T04:12:34.993Z,18.60
2022-07-25T04:15:02.050Z,18.60
2022-07-25T04:17:29.116Z,18.70
2022-07-25T04:19:56.109Z,18.70
2022-07-25T04:22:23.772Z,18.70
2022-07-25T04:24:50.756Z,18.70
2022-07-25T04:27:17.814Z,18.70
2022-07-25T04:29:44.763Z,18.70
2022-07-25T04:32:11.960Z,18.70
2022-07-25T04:34:38.921Z,18.80
2022-07-25T04:37:06.004Z,18.80
2022-07-25T04:39:32.963Z,18.80
2022-07-25T04:41:59.806Z,18.90
2022-07-25T04:44:26.839Z,19.00
2022-07-25T04:46:53.788Z,19.20
2022-07-25T04:49:21.817Z,19.40
2022-07-25T04:51:49.216Z,19.50
2022-07-25T04:54:16.214Z,19.70
2022-07-25T04:56:43.186Z,19.90
2022-07-25T04:59:10.654Z,20.10
2022-07-25T05:01:37.647Z,20.30
2022-07-25T05:04:05.487Z,20.40
2022-07-25T05:06:33.244Z,20.50
2022-07-25T05:09:00.575Z,20.60
2022-07-25T05:11:27.829Z,20.70
2022-07-25T05:13:55.741Z,20.80
2022-07-25T05:16:23.186Z,21.00
2022-07-25T05:18:50.254Z,21.10
2022-07-25T05:21:17.204Z,21.10
2022-07-25T05:23:44.245Z,21.20
2022-07-25T05:26:11.161Z,21.40
2022-07-25T05:28:38.238Z,21.40
2022-07-25T05:31:05.859Z,21.50
2022-07-25T05:33:34.315Z,21.60
2022-07-25T05:36:03.352Z,21.70
2022-07-25T05:38:30.514Z,21.80
2022-07-25T05:40:57.977Z,21.90
2022-07-25T05:43:24.991Z,22.10
2022-07-25T05:45:52.343Z,22.20
2022-07-25T05:48:19.289Z,22.20
2022-07-25T05:50:46.255Z,22.20
2022-07-25T05:53:13.102Z,22.30
2022-07-25T05:55:40.969Z,22.30
2022-07-25T05:58:09.576Z,22.40
2022-07-25T06:00:37.625Z,22.50
2022-07-25T06:03:05.233Z,22.70
2022-07-25T06:05:32.553Z,22.90
2022-07-25T06:07:59.700Z,23.00
2022-07-25T06:10:27.265Z,23.10
2022-07-25T06:12:54.385Z,23.30
2022-07-25T06:15:23.155Z,23.50
2022-07-25T06:17:54.866Z,23.60
2022-07-25T06:20:22.615Z,23.90
2022-07-25T06:22:49.803Z,24.00
2022-07-25T06:25:17.070Z,24.00
2022-07-25T06:27:43.997Z,24.10
2022-07-25T06:30:19.855Z,24.20
2022-07-25T06:32:50.868Z,24.30
2022-07-25T06:35:18.303Z,24.30
2022-07-25T06:37:45.408Z,24.40
2022-07-25T06:40:12.873Z,24.60
2022-07-25T06:42:42.047Z,24.70
2022-07-25T06:45:11.021Z,24.80
2022-07-25T06:47:39.356Z,25.00
2022-07-25T06:50:08.584Z,25.10
2022-07-25T06:52:38.815Z,25.20
2022-07-25T06:55:08.115Z,25.40
2022-07-25T06:57:36.052Z,25.40
2022-07-25T07:00:09.903Z,25.50
2022-07-25T07:02:53.201Z,25.60
2022-07-25T07:05:21.151Z,25.70
2022-07-25T07:07:48.349Z,25.80
2022-07-25T07:10:16.763Z,25.90
2022-07-25T07:12:44.485Z,26.00
2022-07-25T07:15:12.337Z,26.20
2022-07-25T07:17:39.570Z,26.30
2022-07-25T07:20:08.338Z,26.40
2022-07-25T07:22:47.224Z,26.60
2022-07-25T07:25:15.832Z,26.70
2022-07-25T07:27:43.869Z,26.80
2022-07-25T07:30:12.289Z,26.90
2022-07-25T07:32:39.216Z,27.10
2022-07-25T07:35:06.603Z,27.30
2022-07-25T07:37:38.732Z,27.50
2022-07-25T07:40:09.470Z,27.60
2022-07-25T07:42:47.090Z,27.80
2022-07-25T07:45:17.700Z,28.10
2022-07-25T07:47:47.959Z,28.20
2022-07-25T07:50:17.162Z,28.50
2022-07-25T07:52:45.277Z,28.60
2022-07-25T07:55:31.596Z,28.90
2022-07-25T07:57:59.780Z,29.10
2022-07-25T08:00:28.394Z,29.20
2022-07-25T08:02:55.839Z,29.50
2022-07-25T08:05:27.559Z,29.70
2022-07-25T08:07:54.709Z,29.90
2022-07-25T08:10:24.684Z,30.10
2022-07-25T08:12:52.041Z,30.30
2022-07-25T08:15:20.590Z,30.40
2022-07-25T08:17:48.889Z,30.70
2022-07-25T08:20:36.747Z,30.80
2022-07-25T08:23:06.011Z,31.00
2022-07-25T08:25:33.595Z,31.30
2022-07-25T08:28:00.524Z,31.50
2022-07-25T08:30:27.843Z,31.70
2022-07-25T08:32:57.125Z,31.90
2022-07-25T08:35:26.652Z,32.10
2022-07-25T08:37:55.014Z,32.30
2022-07-25T08:40:23.813Z,32.50
2022-07-25T08:42:51.630Z,32.80
2022-07-25T08:45:19.665Z,33.10
2022-07-25T08:47:48.360Z,33.40
2022-07-25T08:50:17.801Z,33.50
2022-07-25T08:52:47.543Z,33.60
2022-07-25T08:55:20.039Z,33.70
2022-07-25T08:57:49.361Z,33.80
2022-07-25T09:00:19.939Z,34.10
2022-07-25T09:03:02.514Z,34.40
2022-07-25T09:05:32.014Z,34.50
2022-07-25T09:08:07.627Z,34.70
2022-07-25T09:10:36.917Z,34.80
2022-07-25T09:13:07.901Z,34.80
2022-07-25T09:15:40.888Z,34.90
2022-07-25T09:18:10.848Z,35.10
2022-07-25T09:20:45.720Z,35.30
2022-07-25T09:23:32.749Z,35.40
2022-07-25T09:26:11.279Z,35.50
2022-07-25T09:28:46.406Z,35.60
2022-07-25T09:31:14.871Z,35.70
2022-07-25T09:33:59.087Z,35.90
2022-07-25T09:36:26.288Z,36.00
2022-07-25T09:38:54.920Z,36.20
2022-07-25T09:41:21.863Z,36.20
2022-07-25T09:43:48.992Z,36.40
2022-07-25T09:46:16.136Z,36.60
2022-07-25T09:48:45.567Z,36.70
2022-07-25T09:51:12.576Z,36.80
2022-07-25T09:53:41.020Z,36.80
2022-07-25T09:56:08.684Z,36.80
2022-07-25T09:58:35.907Z,36.80
2022-07-25T10:01:06.759Z,37.00
2022-07-25T10:03:52.869Z,37.30
2022-07-25T10:06:40.014Z,37.50
2022-07-25T10:09:14.219Z,37.60
2022-07-25T10:12:01.461Z,37.70
2022-07-25T10:14:28.440Z,37.90
2022-07-25T10:16:55.435Z,38.00
2022-07-25T10:19:51.811Z,38.10
2022-07-25T10:22:34.410Z,38.10
2022-07-25T10:25:19.287Z,38.00
2022-07-25T10:27:52.946Z,38.10
2022-07-25T10:30:25.381Z,38.10
2022-07-25T10:33:00.524Z,37.90
2022-07-25T10:35:28.472Z,37.90
2022-07-25T10:37:57.644Z,38.10
2022-07-25T10:40:39.503Z,38.20
2022-07-25T10:43:13.478Z,38.20
2022-07-25T10:45:52.929Z,38.20
2022-07-25T10:48:29.088Z,38.30
2022-07-25T10:51:00.241Z,38.20
2022-07-25T10:53:35.862Z,38.00
2022-07-25T10:56:09.132Z,38.10
2022-07-25T10:58:52.135Z,38.10
2022-07-25T11:01:32.384Z,38.10
2022-07-25T11:04:02.689Z,38.20
2022-07-25T11:06:35.725Z,38.50
2022-07-25T11:09:17.621Z,38.70
2022-07-25T11:11:50.405Z,38.70
2022-07-25T11:14:25.828Z,38.70
2022-07-25T11:16:55.111Z,38.70
2022-07-25T11:19:27.376Z,38.80
2022-07-25T11:22:00.094Z,38.70
2022-07-25T11:24:41.443Z,38.70
2022-07-25T11:27:12.709Z,38.80
2022-07-25T11:29:40.839Z,38.90
2022-07-25T11:32:12.552Z,38.70
2022-07-25T11:34:48.151Z,38.40
2022-07-25T11:37:16.311Z,38.60
2022-07-25T11:39:47.578Z,38.80
2022-07-25T11:42:18.569Z,39.00
2022-07-25T11:44:51.383Z,39.20
2022-07-25T11:47:32.877Z,39.50
2022-07-25T11:50:02.487Z,39.70
2022-07-25T11:52:33.210Z,39.80
2022-07-25T11:55:06.686Z,39.80
2022-07-25T11:57:35.516Z,39.70
2022-07-25T12:00:09.508Z,39.30
2022-07-25T12:02:37.110Z,39.10
2022-07-25T12:05:06.851Z,39.20
2022-07-25T12:07:44.641Z,39.30
2022-07-25T12:10:24.015Z,39.50
2022-07-25T12:12:54.837Z,39.70
2022-07-25T12:15:24.819Z,39.80
2022-07-25T12:17:53.325Z,39.80
2022-07-25T12:20:23.586Z,40.00
2022-07-25T12:22:53.804Z,40.10
2022-07-25T12:25:21.388Z,40.30
2022-07-25T12:27:49.729Z,40.10
2022-07-25T12:30:17.435Z,39.70
2022-07-25T12:32:44.723Z,39.40
2022-07-25T12:35:13.947Z,39.40
2022-07-25T12:37:41.794Z,39.40
2022-07-25T12:40:10.742Z,39.50
2022-07-25T12:42:37.736Z,39.70
2022-07-25T12:45:05.400Z,39.70
2022-07-25T12:47:32.360Z,39.90
2022-07-25T12:49:59.507Z,39.90
2022-07-25T12:52:26.807Z,40.00
2022-07-25T12:54:54.014Z,40.10
2022-07-25T12:57:20.914Z,40.10
2022-07-25T12:59:48.089Z,40.10
2022-07-25T13:02:15.706Z,40.10
2022-07-25T13:04:43.127Z,39.80
2022-07-25T13:07:10.166Z,39.80
2022-07-25T13:09:37.092Z,39.60
2022-07-25T13:12:04.316Z,39.40
2022-07-25T13:14:31.340Z,39.00
2022-07-25T13:16:58.544Z,38.70
2022-07-25T13:19:25.518Z,38.40
2022-07-25T13:21:52.415Z,38.40
2022-07-25T13:24:19.361Z,38.40
2022-07-25T13:26:46.410Z,38.30
2022-07-25T13:29:13.404Z,38.10
2022-07-25T13:31:41.657Z,38.10
2022-07-25T13:34:09.906Z,38.10
2022-07-25T13:36:38.253Z,38.40
2022-07-25T13:39:06.451Z,38.60
2022-07-25T13:41:33.571Z,38.70
2022-07-25T13:44:00.750Z,38.50
2022-07-25T13:46:27.794Z,38.20
2022-07-25T13:48:55.575Z,37.80
2022-07-25T13:51:22.517Z,37.60
2022-07-25T13:53:49.988Z,37.30
2022-07-25T13:56:17.380Z,37.30
2022-07-25T13:58:44.333Z,37.30
2022-07-25T14:01:15.259Z,37.20
2022-07-25T14:03:42.287Z,36.90
2022-07-25T14:06:11.331Z,36.70
2022-07-25T14:08:40.454Z,36.30
2022-07-25T14:11:08.373Z,36.10
2022-07-25T14:13:36.456Z,35.80
2022-07-25T14:16:03.699Z,35.70
2022-07-25T14:18:31.986Z,35.60
2022-07-25T14:20:59.705Z,35.70
2022-07-25T14:23:30.064Z,36.00
2022-07-25T14:25:59.132Z,36.20
2022-07-25T14:28:26.599Z,36.20
2022-07-25T14:30:53.632Z,36.00
2022-07-25T14:33:20.675Z,35.90
2022-07-25T14:35:47.678Z,36.10
2022-07-25T14:38:15.292Z,36.20
2022-07-25T14:40:42.940Z,36.20
2022-07-25T14:43:09.850Z,36.20
2022-07-25T14:45:37.239Z,36.20
2022-07-25T14:48:07.532Z,36.20
2022-07-25T14:50:34.530Z,36.10
2022-07-25T14:53:01.533Z,36.20
2022-07-25T14:55:28.771Z,36.60
2022-07-25T14:57:58.126Z,37.10
2022-07-25T15:00:29.472Z,37.40
2022-07-25T15:02:57.462Z,37.40
2022-07-25T15:05:24.491Z,37.30
2022-07-25T15:07:51.437Z,37.10
2022-07-25T15:10:18.598Z,36.90
2022-07-25T15:12:45.648Z,36.80
2022-07-25T15:15:12.692Z,36.90
2022-07-25T15:17:39.840Z,37.00
2022-07-25T15:20:07.664Z,37.20
2022-07-25T15:22:34.617Z,37.10
2022-07-25T15:25:57.920Z,37.40
2022-07-25T15:27:49.281Z,37.70
2022-07-25T15:30:16.262Z,37.90
2022-07-25T15:32:43.935Z,38.20
2022-07-25T15:35:10.996Z,38.40
2022-07-25T15:37:37.993Z,38.40
2022-07-25T15:40:05.545Z,38.60
2022-07-25T15:42:33.606Z,38.60
2022-07-25T15:45:31.600Z,38.50
2022-07-25T15:47:51.089Z,38.40
2022-07-25T15:50:19.169Z,38.30
2022-07-25T15:52:47.716Z,37.90
2022-07-25T15:55:15.415Z,37.50
2022-07-25T15:57:42.456Z,37.10
2022-07-25T16:00:09.860Z,36.80
2022-07-25T16:02:36.852Z,36.70
2022-07-25T16:05:04.658Z,36.70
2022-07-25T16:07:31.997Z,36.70
2022-07-25T16:09:59.207Z,36.50
2022-07-25T16:12:28.636Z,36.20
2022-07-25T16:14:56.150Z,35.90
2022-07-25T16:17:23.782Z,35.60
2022-07-25T16:19:50.790Z,35.40
2022-07-25T16:22:17.835Z,35.20
2022-07-25T16:24:44.971Z,34.90
2022-07-25T16:27:12.114Z,34.80
2022-07-25T16:29:39.968Z,34.60
2022-07-25T16:32:07.846Z,34.50
2022-07-25T16:34:35.405Z,34.60
2022-07-25T16:37:03.767Z,34.60
2022-07-25T16:39:30.724Z,34.40
2022-07-25T16:41:57.664Z,34.40
2022-07-25T16:44:24.624Z,34.20
2022-07-25T16:46:51.914Z,34.10
2022-07-25T16:49:19.257Z,34.00
2022-07-25T16:51:46.456Z,33.60
2022-07-25T16:54:13.442Z,33.30
2022-07-25T16:56:41.070Z,33.10
2022-07-25T16:59:08.759Z,32.80
2022-07-25T17:01:36.362Z,32.60
2022-07-25T17:04:04.115Z,32.40
2022-07-25T17:06:31.648Z,32.20
2022-07-25T17:08:58.820Z,32.00
2022-07-25T17:11:26.852Z,32.00
2022-07-25T17:13:53.730Z,31.80
2022-07-25T17:16:20.750Z,31.90
2022-07-25T17:18:47.696Z,31.80
2022-07-25T17:21:16.761Z,31.80
2022-07-25T17:23:44.035Z,31.80
2022-07-25T17:26:11.381Z,31.80
2022-07-25T17:28:38.510Z,31.80
2022-07-25T17:31:05.773Z,31.70
2022-07-25T17:33:32.851Z,31.50
2022-07-25T17:36:00.392Z,31.50
2022-07-25T17:38:31.611Z,31.70
2022-07-25T17:41:01.641Z,31.80
2022-07-25T17:43:29.119Z,31.90
2022-07-25T17:45:56.727Z,32.00
2022-07-25T17:48:23.799Z,32.00
2022-07-25T17:50:52.288Z,32.00
2022-07-25T17:53:19.372Z,32.00
2022-07-25T17:55:46.359Z,31.90
2022-07-25T17:58:13.808Z,31.70
2022-07-25T18:00:40.854Z,31.60
2022-07-25T18:03:08.416Z,31.50
2022-07-25T18:05:35.636Z,31.60
2022-07-25T18:08:04.038Z,31.70
2022-07-25T18:10:31.522Z,31.70
2022-07-25T18:13:00.823Z,31.70
2022-07-25T18:15:28.498Z,31.60
2022-07-25T18:17:55.449Z,31.50
2022-07-25T18:20:24.244Z,31.50
2022-07-25T18:22:51.364Z,31.50
2022-07-25T18:25:18.519Z,31.40
2022-07-25T18:27:47.153Z,31.50
2022-07-25T18:30:15.247Z,31.40
2022-07-25T18:32:43.136Z,31.20
2022-07-25T18:35:11.285Z,31.00
2022-07-25T18:37:38.364Z,30.90
2022-07-25T18:40:07.269Z,30.70
2022-07-25T18:42:36.051Z,30.50
2022-07-25T18:45:04.201Z,30.30
2022-07-25T18:47:34.857Z,30.10
2022-07-25T18:50:02.818Z,29.90
2022-07-25T18:52:34.892Z,29.80
2022-07-25T18:55:06.727Z,29.70
2022-07-25T18:57:34.470Z,29.60
2022-07-25T19:00:03.399Z,29.40
2022-07-25T19:02:30.870Z,29.40
2022-07-25T19:04:58.110Z,29.20
2022-07-25T19:07:26.050Z,29.10
2022-07-25T19:09:53.101Z,29.00
2022-07-25T19:12:20.216Z,28.90
2022-07-25T19:14:47.330Z,28.90
2022-07-25T19:17:14.542Z,28.80
2022-07-25T19:19:42.073Z,28.60
2022-07-25T19:22:09.076Z,28.50
2022-07-25T19:24:35.951Z,28.50
2022-07-25T19:27:06.229Z,28.40
2022-07-25T19:29:33.923Z,28.10
2022-07-25T19:32:01.343Z,28.00
2022-07-25T19:34:28.301Z,27.90
2022-07-25T19:36:56.406Z,27.90
2022-07-25T19:39:24.641Z,27.80
2022-07-25T19:41:52.696Z,27.80
2022-07-25T19:44:19.827Z,27.70
2022-07-25T19:46:48.766Z,27.50
2022-07-25T19:49:15.874Z,27.40
2022-07-25T19:51:43.005Z,27.30
2022-07-25T19:54:10.474Z,27.10
2022-07-25T19:56:37.875Z,27.10
2022-07-25T19:59:04.819Z,27.00
2022-07-25T20:01:35.833Z,27.00
2022-07-25T20:04:05.442Z,27.00
2022-07-25T20:06:32.858Z,26.90
2022-07-25T20:08:59.857Z,26.90
2022-07-25T20:11:26.992Z,26.70
2022-07-25T20:13:54.199Z,26.60
2022-07-25T20:16:21.184Z,26.60
2022-07-25T20:18:48.463Z,26.50
2022-07-25T20:21:18.046Z,26.50
2022-07-25T20:23:45.747Z,26.40
2022-07-25T20:26:13.481Z,26.30
2022-07-25T20:28:40.765Z,26.30
2022-07-25T20:31:07.686Z,26.30
2022-07-25T20:33:34.857Z,26.20
2022-07-25T20:36:01.949Z,26.00
2022-07-25T20:38:28.925Z,26.00
2022-07-25T20:40:56.149Z,25.90
2022-07-25T20:43:22.984Z,25.80
2022-07-25T20:45:50.027Z,25.80
2022-07-25T20:48:17.228Z,25.70
2022-07-25T20:50:44.763Z,25.70
2022-07-25T20:53:11.818Z,25.70
2022-07-25T20:55:38.883Z,25.60
2022-07-25T20:58:05.821Z,25.50
2022-07-25T21:00:32.892Z,25.50
2022-07-25T21:03:00.461Z,25.40
2022-07-25T21:05:28.730Z,25.40
2022-07-25T21:07:55.991Z,25.40
2022-07-25T21:10:23.500Z,25.30
2022-07-25T21:12:50.518Z,25.20
2022-07-25T21:15:17.585Z,25.10
2022-07-25T21:17:44.709Z,25.00
2022-07-25T21:20:13.578Z,24.90
2022-07-25T21:22:41.128Z,24.80
2022-07-25T21:25:08.959Z,24.80
2022-07-25T21:27:36.654Z,24.80
2022-07-25T21:30:05.856Z,24.70
2022-07-25T21:32:32.981Z,24.70
2022-07-25T21:34:59.848Z,24.50
2022-07-25T21:37:26.958Z,24.40
2022-07-25T21:39:54.112Z,24.40
2022-07-25T21:42:21.272Z,24.20
2022-07-25T21:44:48.273Z,24.20
2022-07-25T21:47:15.163Z,24.10
2022-07-25T21:50:01.310Z,24.00
2022-07-25T21:52:34.372Z,23.90
2022-07-25T21:55:03.516Z,23.70
2022-07-25T21:57:31.253Z,23.70
2022-07-25T21:59:58.208Z,23.50
2022-07-25T22:02:25.531Z,23.50
2022-07-25T22:04:52.908Z,23.40
2022-07-25T22:07:20.114Z,23.30
2022-07-25T22:09:47.027Z,23.30
2022-07-25T22:12:15.257Z,23.30
2022-07-25T22:14:42.280Z,23.30
2022-07-25T22:17:09.462Z,23.30
2022-07-25T22:19:36.409Z,23.30
2022-07-25T22:22:05.981Z,23.20
2022-07-25T22:24:33.281Z,23.10
2022-07-25T22:27:00.282Z,23.00
2022-07-25T22:29:27.181Z,22.90
2022-07-25T22:31:54.120Z,22.90
2022-07-25T22:34:21.314Z,22.70
2022-07-25T22:36:48.356Z,22.70
2022-07-25T22:39:16.701Z,22.70
2022-07-25T22:41:43.885Z,22.70
2022-07-25T22:44:10.951Z,22.60
2022-07-25T22:46:37.977Z,22.60
2022-07-25T22:49:05.299Z,22.60
2022-07-25T22:51:32.818Z,22.50
2022-07-25T22:54:00.569Z,22.60
2022-07-25T22:56:28.442Z,22.50
2022-07-25T22:58:55.678Z,22.50
2022-07-25T23:01:23.518Z,22.50
2022-07-25T23:03:50.649Z,22.40
2022-07-25T23:06:19.669Z,22.40
2022-07-25T23:08:47.148Z,22.40
2022-07-25T23:11:14.184Z,22.30
2022-07-25T23:13:41.134Z,22.40
2022-07-25T23:16:10.369Z,22.40
2022-07-25T23:18:38.308Z,22.40
2022-07-25T23:21:05.836Z,22.40
2022-07-25T23:23:32.789Z,22.40
2022-07-25T23:25:59.757Z,22.50
2022-07-25T23:28:26.927Z,22.50
2022-07-25T23:30:54.422Z,22.60
2022-07-25T23:33:21.928Z,22.60
2022-07-25T23:35:53.501Z,22.60
2022-07-25T23:38:20.833Z,22.60
2022-07-25T23:40:47.947Z,22.50
2022-07-25T23:43:17.000Z,22.50
2022-07-25T23:45:56.480Z,22.60
2022-07-25T23:48:23.422Z,22.50
2022-07-25T23:50:50.425Z,22.60
2022-07-25T23:53:17.452Z,22.60
2022-07-25T23:55:44.399Z,22.70
2022-07-25T23:58:11.332Z,22.70
